Time;durP1;ratioP1;P1;durP2;ratioP2;P2;SDS_P1;SDS_P2;PMS_P1;PMS_P2;Temp;Humidity;BMP_temperature;BMP_pressure;BME280_temperature;BME280_humidity;BME280_pressure;Samples;Min_cycle;Max_cycle;Signal;HPM_P1;HPM_P2
2023/03/12 00:00:42;;;;;;;2.63;1.17;;;460.80;1024.00;;;;;;5148480;27;20088;-66
2023/03/12 00:03:08;;;;;;;2.78;1.00;;;460.80;1024.00;;;;;;5148754;27;20034;-67
2023/03/12 00:05:37;;;;;;;2.05;1.00;;;460.80;1024.00;;;;;;5130612;27;20038;-66
2023/03/12 00:08:02;;;;;;;3.80;1.58;;;460.80;1024.00;;;;;;5149086;27;20034;-66
2023/03/12 00:10:28;;;;;;;2.30;1.00;;;460.80;1024.00;;;;;;5148826;27;20042;-66
2023/03/12 00:12:54;;;;;;;2.75;1.00;;;460.80;1100.80;;;;;;5148832;27;20369;-66
2023/03/12 00:15:20;;;;;;;3.90;1.30;;;460.80;1024.00;;;;;;5129395;27;20050;-66
2023/03/12 00:17:46;;;;;;;2.30;1.00;;;486.40;998.40;;;;;;5148400;27;20545;-66
2023/03/12 00:20:12;;;;;;;2.25;1.10;;;512.00;998.40;;;;;;5148821;27;20042;-66
2023/03/12 00:22:38;;;;;;;3.45;0.90;;;460.80;1049.60;;;;;;5149019;27;20503;-66
2023/03/12 00:25:07;;;;;;;1.88;1.00;;;435.20;1024.00;;;;;;5147883;27;20394;-67
2023/03/12 00:27:32;;;;;;;2.30;0.98;;;460.80;1075.20;;;;;;5148839;27;20057;-66
2023/03/12 00:29:58;;;;;;;3.53;1.10;;;460.80;1075.20;;;;;;5148737;27;20030;-67
2023/03/12 00:32:24;;;;;;;2.05;1.17;;;435.20;1024.00;;;;;;5147770;27;20067;-66
2023/03/12 00:34:54;;;;;;;2.63;0.90;;;460.80;1049.60;;;;;;5148252;27;20469;-67
2023/03/12 00:37:21;;;;;;;2.65;1.02;;;537.60;972.80;;;;;;5148790;27;20046;-67
2023/03/12 00:39:47;;;;;;;2.95;1.10;;;460.80;1024.00;;;;;;5147262;27;20147;-66
2023/03/12 00:42:13;;;;;;;2.05;1.10;;;460.80;1024.00;;;;;;5148500;27;20070;-67
2023/03/12 00:44:38;;;;;;;2.55;1.00;;;460.80;1024.00;;;;;;5145393;27;20516;-67
2023/03/12 00:47:04;;;;;;;2.42;1.02;;;460.80;1049.60;;;;;;5136645;27;20039;-66
2023/03/12 00:49:30;;;;;;;2.45;1.33;;;460.80;1075.20;;;;;;5127178;27;20043;-67
2023/03/12 00:51:56;;;;;;;2.75;0.90;;;435.20;1126.40;;;;;;5127438;27;20071;-67
2023/03/12 00:54:22;;;;;;;3.63;0.90;;;460.80;1024.00;;;;;;5126873;27;20042;-67
2023/03/12 00:56:48;;;;;;;2.58;0.95;;;435.20;1024.00;;;;;;5127157;27;20039;-66
2023/03/12 00:59:14;;;;;;;1.90;1.00;;;435.20;1024.00;;;;;;5127055;27;20063;-67
2023/03/12 01:01:41;;;;;;;1.50;0.80;;;460.80;1024.00;;;;;;5127619;27;20038;-66
2023/03/12 01:04:07;;;;;;;1.40;0.70;;;435.20;1024.00;;;;;;5127775;27;20507;-67
2023/03/12 01:06:32;;;;;;;2.10;1.10;;;435.20;1024.00;;;;;;5126992;27;20049;-66
2023/03/12 01:09:04;;;;;;;1.23;0.70;;;435.20;1075.20;;;;;;5126551;27;20738;-67
2023/03/12 01:11:31;;;;;;;1.60;1.00;;;435.20;1024.00;;;;;;5127013;27;20051;-66
2023/03/12 01:13:58;;;;;;;1.50;0.90;;;460.80;1024.00;;;;;;5126565;27;20126;-67
2023/03/12 01:16:27;;;;;;;2.72;1.00;;;435.20;1024.00;;;;;;5127683;27;20084;-67
2023/03/12 01:18:54;;;;;;;1.90;1.00;;;435.20;1024.00;;;;;;5125625;27;20090;-67
2023/03/12 01:21:19;;;;;;;3.00;1.13;;;435.20;1024.00;;;;;;5126462;27;20047;-67
2023/03/12 01:23:45;;;;;;;2.20;1.10;;;435.20;1024.00;;;;;;5125795;27;20039;-67
2023/03/12 01:26:11;;;;;;;1.55;0.90;;;435.20;1024.00;;;;;;5127281;27;20050;-67
2023/03/12 01:28:36;;;;;;;2.13;1.02;;;435.20;1126.40;;;;;;5108221;27;20099;-67
2023/03/12 01:31:07;;;;;;;2.10;1.00;;;435.20;1152.00;;;;;;5125939;27;20047;-67
2023/03/12 01:33:33;;;;;;;1.67;0.80;;;435.20;1024.00;;;;;;5125652;27;20417;-67
2023/03/12 01:35:58;;;;;;;1.30;0.80;;;435.20;1049.60;;;;;;5127097;27;20043;-67
2023/03/12 01:38:24;;;;;;;1.70;0.90;;;435.20;1024.00;;;;;;5125319;27;20489;-67
2023/03/12 01:40:49;;;;;;;1.50;0.90;;;435.20;1024.00;;;;;;5126793;27;20042;-67
2023/03/12 01:43:29;;;;;;;2.00;1.00;;;435.20;1024.00;;;;;;5126055;27;20423;-67
2023/03/12 01:45:57;;;;;;;2.28;1.10;;;435.20;1152.00;;;;;;5135946;27;20046;-67
2023/03/12 01:48:24;;;;;;;1.70;0.90;;;435.20;1126.40;;;;;;5127288;27;20043;-68
2023/03/12 01:50:49;;;;;;;1.63;0.90;;;435.20;1024.00;;;;;;5125525;27;20050;-67
2023/03/12 01:53:15;;;;;;;2.63;1.15;;;435.20;1126.40;;;;;;5124757;27;20116;-67
2023/03/12 01:55:42;;;;;;;2.03;0.93;;;435.20;1024.00;;;;;;5126073;27;20074;-66
2023/03/12 01:58:08;;;;;;;2.20;0.85;;;435.20;1024.00;;;;;;5125253;27;20087;-69
2023/03/12 02:00:34;;;;;;;3.05;1.10;;;435.20;1024.00;;;;;;5106533;27;20405;-67
2023/03/12 02:03:07;;;;;;;2.80;1.20;;;435.20;1152.00;;;;;;5125627;27;20035;-67
2023/03/12 02:05:53;;;;;;;1.77;0.90;;;435.20;1024.00;;;;;;5125915;27;20057;-66
2023/03/12 02:08:21;;;;;;;2.72;1.17;;;435.20;1126.40;;;;;;5124615;27;20057;-67
2023/03/12 02:10:48;;;;;;;1.85;1.05;;;435.20;1075.20;;;;;;5125475;27;20042;-67
2023/03/12 02:13:14;;;;;;;2.10;1.17;;;435.20;1024.00;;;;;;5125741;27;20043;-68
2023/03/12 02:15:40;;;;;;;1.70;1.00;;;435.20;1024.00;;;;;;5125825;27;20047;-67
2023/03/12 02:18:08;;;;;;;1.92;1.02;;;435.20;1075.20;;;;;;5125812;27;20035;-67
2023/03/12 02:21:00;;;;;;;2.00;1.00;;;435.20;1024.00;;;;;;5125500;27;20035;-66
2023/03/12 02:23:48;;;;;;;2.00;0.80;;;435.20;1024.00;;;;;;5124064;27;20043;-67
2023/03/12 02:26:15;;;;;;;1.80;0.90;;;537.60;972.80;;;;;;5141556;27;20062;-70
2023/03/12 02:28:42;;;;;;;2.30;1.00;;;435.20;1024.00;;;;;;5126393;27;20043;-67
2023/03/12 02:31:11;;;;;;;1.55;1.00;;;435.20;1024.00;;;;;;5133551;27;20039;-67
2023/03/12 02:33:37;;;;;;;2.08;0.90;;;435.20;1024.00;;;;;;5145219;27;20039;-69
2023/03/12 02:36:03;;;;;;;2.03;1.10;;;435.20;1024.00;;;;;;5146021;27;20122;-67
2023/03/12 02:38:46;;;;;;;2.33;1.00;;;435.20;1024.00;;;;;;5145055;27;20046;-67
2023/03/12 02:41:25;;;;;;;2.22;1.10;;;435.20;1024.00;;;;;;5146370;27;20605;-67
2023/03/12 02:44:21;;;;;;;1.80;1.05;;;435.20;1024.00;;;;;;5145816;27;20400;-67
2023/03/12 02:46:50;;;;;;;2.08;0.90;;;435.20;1024.00;;;;;;5117295;27;20043;-67
2023/03/12 02:49:18;;;;;;;2.20;0.88;;;435.20;1024.00;;;;;;5127772;27;20111;-68
2023/03/12 02:51:45;;;;;;;2.60;1.02;;;435.20;1049.60;;;;;;5127531;27;20034;-67
2023/03/12 02:54:12;;;;;;;1.65;0.90;;;435.20;1024.00;;;;;;5145431;27;20049;-67
2023/03/12 02:56:38;;;;;;;1.83;1.10;;;435.20;1024.00;;;;;;5146541;27;20069;-67
2023/03/12 02:59:04;;;;;;;2.28;1.10;;;435.20;1024.00;;;;;;5126503;27;20051;-68
2023/03/12 03:01:32;;;;;;;1.55;0.85;;;435.20;1024.00;;;;;;5127710;27;20051;-67
2023/03/12 03:04:02;;;;;;;2.58;1.30;;;435.20;1024.00;;;;;;5145970;27;20450;-68
2023/03/12 03:06:29;;;;;;;2.05;1.15;;;435.20;1024.00;;;;;;5145499;27;20077;-67
2023/03/12 03:08:54;;;;;;;1.92;0.90;;;435.20;1024.00;;;;;;5145311;27;20039;-67
2023/03/12 03:11:23;;;;;;;2.25;1.00;;;435.20;1177.60;;;;;;5127592;27;20047;-67
2023/03/12 03:13:53;;;;;;;1.88;1.08;;;435.20;1100.80;;;;;;5146154;27;20070;-66
2023/03/12 03:16:19;;;;;;;2.17;1.08;;;435.20;1024.00;;;;;;5145982;27;20038;-66
2023/03/12 03:18:45;;;;;;;1.50;0.90;;;435.20;1024.00;;;;;;5146310;27;20568;-66
2023/03/12 03:21:15;;;;;;;2.20;1.13;;;435.20;1024.00;;;;;;5145551;27;20035;-66
2023/03/12 03:23:42;;;;;;;1.77;0.90;;;435.20;1024.00;;;;;;5144337;27;20054;-66
2023/03/12 03:26:08;;;;;;;1.83;1.00;;;435.20;1024.00;;;;;;5145644;27;20043;-67
2023/03/12 03:28:33;;;;;;;2.35;1.10;;;435.20;1024.00;;;;;;5127181;27;20414;-67
2023/03/12 03:31:00;;;;;;;1.92;0.93;;;435.20;1024.00;;;;;;5145143;27;20038;-66
2023/03/12 03:33:31;;;;;;;1.52;0.95;;;435.20;1024.00;;;;;;5145650;27;20046;-67
2023/03/12 03:35:58;;;;;;;2.15;1.25;;;435.20;1024.00;;;;;;5126714;27;20043;-66
2023/03/12 03:38:25;;;;;;;1.48;0.80;;;435.20;1024.00;;;;;;5144416;27;20046;-66
2023/03/12 03:40:51;;;;;;;1.90;1.00;;;435.20;1024.00;;;;;;5145944;27;20035;-66
2023/03/12 03:43:17;;;;;;;1.92;0.80;;;435.20;1126.40;;;;;;5146305;27;20030;-66
2023/03/12 03:45:43;;;;;;;1.80;1.00;;;435.20;1024.00;;;;;;5137396;27;20485;-66
2023/03/12 03:48:10;;;;;;;2.17;1.05;;;435.20;1049.60;;;;;;5128095;27;20430;-66
2023/03/12 03:50:37;;;;;;;2.47;1.10;;;435.20;1024.00;;;;;;5124901;28;20047;-66
2023/03/12 03:53:04;;;;;;;2.47;1.27;;;435.20;1024.00;;;;;;5105443;28;20115;-66
2023/03/12 03:55:30;;;;;;;2.17;1.10;;;435.20;1024.00;;;;;;5124465;28;20454;-67
2023/03/12 03:57:56;;;;;;;2.00;1.17;;;435.20;1024.00;;;;;;5124589;28;20076;-66
2023/03/12 04:00:21;;;;;;;1.73;1.00;;;435.20;1024.00;;;;;;5125070;28;20051;-65
2023/03/12 04:02:47;;;;;;;2.30;1.05;;;435.20;1075.20;;;;;;5124566;28;20038;-66
2023/03/12 04:05:14;;;;;;;2.33;1.02;;;435.20;1126.40;;;;;;5125016;27;20435;-66
2023/03/12 04:07:40;;;;;;;1.73;0.90;;;435.20;1049.60;;;;;;5128725;27;20505;-67
2023/03/12 04:10:07;;;;;;;2.33;0.88;;;435.20;1024.00;;;;;;5128076;27;20046;-65
2023/03/12 04:12:32;;;;;;;1.85;0.98;;;435.20;1024.00;;;;;;5127996;27;20047;-66
2023/03/12 04:14:58;;;;;;;1.67;0.90;;;435.20;1126.40;;;;;;5128867;27;20035;-66
2023/03/12 04:17:24;;;;;;;1.90;1.00;;;435.20;1024.00;;;;;;5128323;27;20061;-66
2023/03/12 04:19:50;;;;;;;1.85;0.90;;;435.20;1024.00;;;;;;5128182;27;20092;-66
2023/03/12 04:22:15;;;;;;;1.90;1.00;;;435.20;1100.80;;;;;;5144081;27;20118;-67
2023/03/12 04:24:41;;;;;;;1.23;0.90;;;435.20;1024.00;;;;;;5127570;27;20054;-66
2023/03/12 04:27:07;;;;;;;1.88;1.08;;;435.20;1049.60;;;;;;5128539;27;20478;-66
2023/03/12 04:29:32;;;;;;;1.98;1.00;;;435.20;1024.00;;;;;;5127957;27;20081;-68
2023/03/12 04:31:58;;;;;;;2.05;1.00;;;435.20;1049.60;;;;;;5127800;27;20473;-66
2023/03/12 04:34:24;;;;;;;2.88;1.13;;;435.20;1100.80;;;;;;5144168;27;20051;-66
2023/03/12 04:36:49;;;;;;;2.25;1.02;;;435.20;1049.60;;;;;;5128117;27;20035;-66
2023/03/12 04:39:19;;;;;;;1.92;1.00;;;435.20;1024.00;;;;;;5127086;27;20031;-66
2023/03/12 04:41:45;;;;;;;2.15;0.82;;;435.20;1024.00;;;;;;5127948;27;20039;-66
2023/03/12 04:44:11;;;;;;;1.85;1.08;;;409.60;1049.60;;;;;;5127349;27;20047;-66
2023/03/12 04:46:37;;;;;;;1.80;1.00;;;435.20;1049.60;;;;;;5139092;27;20039;-66
2023/03/12 04:49:04;;;;;;;2.33;1.10;;;435.20;1024.00;;;;;;5143722;27;20351;-65
2023/03/12 04:51:30;;;;;;;3.45;1.08;;;435.20;1024.00;;;;;;5127922;27;20062;-66
2023/03/12 04:53:56;;;;;;;1.90;1.00;;;435.20;1024.00;;;;;;5126223;27;20048;-67
2023/03/12 04:56:22;;;;;;;2.20;1.08;;;435.20;1024.00;;;;;;5127920;27;20043;-66
2023/03/12 04:58:48;;;;;;;2.00;1.00;;;435.20;1152.00;;;;;;5127373;27;20059;-66
2023/03/12 05:01:22;;;;;;;2.10;1.13;;;409.60;1049.60;;;;;;5108861;27;20093;-67
2023/03/12 05:03:48;;;;;;;2.47;1.00;;;435.20;1024.00;;;;;;5128138;27;20051;-66
2023/03/12 05:06:14;;;;;;;2.08;1.00;;;486.40;998.40;;;;;;5143427;27;20435;-66
2023/03/12 05:08:39;;;;;;;2.38;1.05;;;435.20;1100.80;;;;;;5126173;27;20059;-67
2023/03/12 05:11:05;;;;;;;2.38;1.20;;;486.40;1024.00;;;;;;5127171;27;20039;-66
2023/03/12 05:13:30;;;;;;;2.40;1.20;;;435.20;1024.00;;;;;;5127460;27;20047;-68
2023/03/12 05:15:56;;;;;;;2.72;1.20;;;435.20;1049.60;;;;;;5127092;27;20080;-67
2023/03/12 05:18:22;;;;;;;1.95;1.05;;;435.20;1024.00;;;;;;5126806;27;20118;-66
2023/03/12 05:21:05;;;;;;;2.17;1.13;;;409.60;1049.60;;;;;;5126689;27;20535;-67
2023/03/12 05:23:31;;;;;;;2.28;1.20;;;435.20;1024.00;;;;;;5126214;27;20031;-67
2023/03/12 05:25:57;;;;;;;2.00;1.17;;;435.20;1024.00;;;;;;5126907;27;20050;-66
2023/03/12 05:28:27;;;;;;;2.40;1.20;;;435.20;1024.00;;;;;;5108345;27;20089;-66
2023/03/12 05:30:57;;;;;;;2.55;1.23;;;435.20;1024.00;;;;;;5127080;27;20054;-65
2023/03/12 05:33:24;;;;;;;2.67;1.33;;;435.20;1024.00;;;;;;5126184;27;20441;-66
2023/03/12 05:35:50;;;;;;;2.40;1.42;;;435.20;1024.00;;;;;;5126556;27;20181;-66
2023/03/12 05:38:16;;;;;;;2.17;1.10;;;435.20;1024.00;;;;;;5125243;27;20051;-66
2023/03/12 05:40:42;;;;;;;1.75;1.10;;;435.20;1024.00;;;;;;5125654;27;20051;-66
2023/03/12 05:43:08;;;;;;;2.17;1.15;;;435.20;1024.00;;;;;;5126333;27;20481;-66
2023/03/12 05:45:33;;;;;;;1.75;1.10;;;435.20;1049.60;;;;;;5114895;27;20146;-67
2023/03/12 05:47:59;;;;;;;2.90;1.42;;;409.60;1075.20;;;;;;5112152;27;20043;-67
2023/03/12 05:50:25;;;;;;;1.88;1.10;;;409.60;1049.60;;;;;;5126915;27;20088;-65
2023/03/12 05:52:51;;;;;;;2.13;1.20;;;486.40;972.80;;;;;;5125777;27;20134;-66
2023/03/12 05:55:17;;;;;;;1.90;1.10;;;435.20;1024.00;;;;;;5108475;27;20449;-67
2023/03/12 05:57:43;;;;;;;2.20;1.20;;;435.20;1075.20;;;;;;5124755;27;20059;-66
2023/03/12 06:00:09;;;;;;;1.83;1.08;;;435.20;1049.60;;;;;;5125996;27;20066;-66
2023/03/12 06:02:35;;;;;;;2.25;1.13;;;460.80;1024.00;;;;;;5126314;27;20046;-68
2023/03/12 06:05:00;;;;;;;1.88;1.00;;;460.80;1126.40;;;;;;5125653;27;20039;-67
2023/03/12 06:07:26;;;;;;;2.17;1.20;;;460.80;1049.60;;;;;;5125929;27;20035;-66
2023/03/12 06:09:51;;;;;;;2.60;1.40;;;460.80;1024.00;;;;;;5126153;27;20039;-67
2023/03/12 06:12:17;;;;;;;2.22;1.33;;;460.80;1049.60;;;;;;5126227;27;20074;-67
2023/03/12 06:14:43;;;;;;;1.83;1.05;;;460.80;1049.60;;;;;;5125626;27;20067;-66
2023/03/12 06:17:08;;;;;;;2.40;1.20;;;460.80;998.40;;;;;;5126315;27;20126;-66
2023/03/12 06:19:34;;;;;;;2.40;1.10;;;460.80;1049.60;;;;;;5126125;27;20073;-66
2023/03/12 06:22:00;;;;;;;2.08;1.20;;;460.80;1177.60;;;;;;5125486;27;20035;-66
2023/03/12 06:24:25;;;;;;;2.83;1.10;;;460.80;1177.60;;;;;;5124821;27;20047;-67
2023/03/12 06:26:51;;;;;;;3.20;1.35;;;435.20;1100.80;;;;;;5126359;27;20039;-66
2023/03/12 06:29:16;;;;;;;1.98;1.20;;;460.80;1049.60;;;;;;5125441;27;20330;-66
2023/03/12 06:31:42;;;;;;;2.60;1.30;;;486.40;1100.80;;;;;;5125469;27;20066;-67
2023/03/12 06:34:09;;;;;;;2.05;1.08;;;460.80;1100.80;;;;;;5125440;27;20043;-66
2023/03/12 06:36:35;;;;;;;2.45;1.30;;;460.80;1024.00;;;;;;5125418;27;20043;-67
2023/03/12 06:39:00;;;;;;;1.80;1.10;;;460.80;1024.00;;;;;;5123841;27;20039;-66
2023/03/12 06:41:26;;;;;;;2.65;1.40;;;486.40;998.40;;;;;;5126202;27;20046;-66
2023/03/12 06:43:52;;;;;;;2.92;1.30;;;435.20;1075.20;;;;;;5125964;27;20078;-66
2023/03/12 06:46:20;;;;;;;1.95;0.95;;;460.80;1049.60;;;;;;5132022;27;20036;-68
2023/03/12 06:48:46;;;;;;;2.22;1.38;;;486.40;998.40;;;;;;5145708;27;20039;-66
2023/03/12 06:51:15;;;;;;;2.72;1.38;;;486.40;998.40;;;;;;5146810;27;20409;-65
2023/03/12 06:53:41;;;;;;;1.85;1.10;;;486.40;998.40;;;;;;5145392;27;20039;-65
2023/03/12 06:56:07;;;;;;;1.80;1.10;;;486.40;998.40;;;;;;5145500;27;20099;-66
2023/03/12 06:58:32;;;;;;;1.67;0.85;;;460.80;1024.00;;;;;;5145375;27;20055;-66
2023/03/12 07:00:58;;;;;;;3.00;1.20;;;486.40;998.40;;;;;;5127734;27;20049;-66
2023/03/12 07:03:24;;;;;;;2.40;1.23;;;460.80;1024.00;;;;;;5145182;27;20047;-66
2023/03/12 07:05:50;;;;;;;2.55;1.30;;;460.80;1024.00;;;;;;5145137;27;20042;-66
2023/03/12 07:08:17;;;;;;;2.03;1.35;;;486.40;998.40;;;;;;5145700;27;20038;-66
2023/03/12 07:10:44;;;;;;;2.33;1.33;;;486.40;998.40;;;;;;5146059;27;20459;-67
2023/03/12 07:13:10;;;;;;;2.20;1.10;;;486.40;998.40;;;;;;5144992;27;20508;-66
2023/03/12 07:15:36;;;;;;;2.53;1.27;;;486.40;998.40;;;;;;5145588;27;20039;-67
2023/03/12 07:18:07;;;;;;;2.03;1.10;;;486.40;998.40;;;;;;5145379;27;20709;-67
2023/03/12 07:20:35;;;;;;;1.88;1.10;;;486.40;1100.80;;;;;;5145438;27;20099;-68
2023/03/12 07:23:01;;;;;;;2.42;1.40;;;486.40;998.40;;;;;;5145097;27;20043;-66
2023/03/12 07:25:26;;;;;;;2.13;1.40;;;486.40;1024.00;;;;;;5161548;27;20046;-66
2023/03/12 07:27:52;;;;;;;2.28;1.10;;;486.40;998.40;;;;;;5145612;27;20043;-68
2023/03/12 07:30:18;;;;;;;1.80;1.10;;;460.80;1024.00;;;;;;5144861;27;20510;-65
2023/03/12 07:32:43;;;;;;;2.42;1.30;;;460.80;1024.00;;;;;;5145327;27;20439;-66
2023/03/12 07:35:09;;;;;;;2.13;1.10;;;486.40;998.40;;;;;;5145250;27;20041;-68
2023/03/12 07:37:35;;;;;;;3.13;1.40;;;486.40;1075.20;;;;;;5144607;27;20035;-67
2023/03/12 07:40:00;;;;;;;1.90;1.35;;;512.00;998.40;;;;;;5145730;27;20046;-67
2023/03/12 07:42:26;;;;;;;2.22;1.48;;;486.40;998.40;;;;;;5149725;27;20099;-67
2023/03/12 07:44:52;;;;;;;2.00;1.40;;;537.60;1075.20;;;;;;5144030;27;20254;-67
2023/03/12 07:47:17;;;;;;;5.63;1.35;;;460.80;1024.00;;;;;;5136683;27;20031;-66
2023/03/12 07:49:43;;;;;;;2.65;1.45;;;563.20;998.40;;;;;;5110207;27;20084;-65
2023/03/12 07:52:10;;;;;;;2.65;1.30;;;512.00;972.80;;;;;;5109023;27;20046;-65
2023/03/12 07:54:37;;;;;;;2.78;1.30;;;512.00;1024.00;;;;;;5109502;27;20055;-64
2023/03/12 07:57:03;;;;;;;3.03;1.40;;;486.40;998.40;;;;;;5128175;27;20035;-66
2023/03/12 07:59:29;;;;;;;3.28;1.58;;;486.40;998.40;;;;;;5128404;27;20055;-66
2023/03/12 08:01:54;;;;;;;2.55;1.40;;;486.40;1075.20;;;;;;5127982;27;20138;-66
2023/03/12 08:04:20;;;;;;;3.22;1.58;;;512.00;998.40;;;;;;5108669;27;20084;-65
2023/03/12 08:06:46;;;;;;;3.15;1.60;;;486.40;1100.80;;;;;;5127059;27;20107;-65
2023/03/12 08:09:12;;;;;;;3.05;1.67;;;486.40;1024.00;;;;;;5125993;27;20046;-66
2023/03/12 08:11:37;;;;;;;5.57;1.70;;;486.40;1024.00;;;;;;5108193;27;20489;-65
2023/03/12 08:14:04;;;;;;;3.08;1.50;;;486.40;1024.00;;;;;;5127447;27;20730;-66
2023/03/12 08:16:30;;;;;;;2.85;1.52;;;486.40;998.40;;;;;;5127707;27;20043;-64
2023/03/12 08:18:55;;;;;;;3.03;1.50;;;486.40;998.40;;;;;;5127357;27;20872;-65
2023/03/12 08:21:21;;;;;;;10.00;1.80;;;486.40;998.40;;;;;;5126268;27;20223;-66
2023/03/12 08:23:47;;;;;;;5.32;1.95;;;486.40;998.40;;;;;;5108234;27;20397;-65
2023/03/12 08:26:12;;;;;;;2.30;1.48;;;486.40;1100.80;;;;;;5127185;27;20493;-65
2023/03/12 08:28:38;;;;;;;3.20;1.42;;;486.40;1024.00;;;;;;5126706;27;20047;-65
2023/03/12 08:31:05;;;;;;;3.00;1.60;;;460.80;1024.00;;;;;;5128165;27;20050;-68
2023/03/12 08:33:30;;;;;;;4.03;1.50;;;486.40;998.40;;;;;;5127429;27;20035;-65
2023/03/12 08:35:56;;;;;;;2.80;1.70;;;486.40;998.40;;;;;;5126347;27;20539;-66
2023/03/12 08:38:22;;;;;;;2.80;1.50;;;486.40;998.40;;;;;;5144273;27;20035;-66
2023/03/12 08:40:56;;;;;;;2.70;1.65;;;486.40;1100.80;;;;;;5147306;27;20459;-66
2023/03/12 08:43:22;;;;;;;4.53;2.00;;;486.40;998.40;;;;;;5127056;27;20046;-66
2023/03/12 08:45:56;;;;;;;3.47;1.50;;;486.40;998.40;;;;;;5145978;27;20489;-65
2023/03/12 08:48:22;;;;;;;3.03;1.70;;;486.40;998.40;;;;;;5146550;27;20512;-67
2023/03/12 08:50:48;;;;;;;2.85;1.42;;;460.80;1024.00;;;;;;5148311;27;20034;-66
2023/03/12 08:53:14;;;;;;;2.15;1.40;;;512.00;998.40;;;;;;5143193;27;20038;-65
2023/03/12 08:55:40;;;;;;;3.10;1.70;;;460.80;998.40;;;;;;5147849;27;20071;-66
2023/03/12 08:58:05;;;;;;;3.38;1.42;;;486.40;998.40;;;;;;5147762;27;20134;-65
2023/03/12 09:00:31;;;;;;;4.05;1.70;;;460.80;1049.60;;;;;;5147709;27;20051;-66
2023/03/12 09:02:57;;;;;;;2.95;1.60;;;486.40;1075.20;;;;;;5147949;27;20114;-66
2023/03/12 09:05:29;;;;;;;2.42;1.70;;;486.40;998.40;;;;;;5148484;27;20468;-65
2023/03/12 09:07:57;;;;;;;3.33;1.70;;;486.40;998.40;;;;;;5147607;27;20046;-66
2023/03/12 09:10:24;;;;;;;2.40;1.65;;;486.40;998.40;;;;;;5112354;27;20034;-65
2023/03/12 09:12:50;;;;;;;2.47;1.50;;;512.00;998.40;;;;;;5147704;27;20046;-64
2023/03/12 09:15:15;;;;;;;4.65;1.73;;;460.80;1075.20;;;;;;5128546;27;20043;-66
2023/03/12 09:17:41;;;;;;;3.00;1.70;;;486.40;998.40;;;;;;5147048;27;20192;-66
2023/03/12 09:20:12;;;;;;;2.72;1.35;;;486.40;998.40;;;;;;5128726;27;20049;-65
2023/03/12 09:22:38;;;;;;;2.75;1.63;;;486.40;998.40;;;;;;5144198;27;20046;-64
2023/03/12 09:25:06;;;;;;;3.28;1.60;;;460.80;1024.00;;;;;;5128862;27;20042;-65
2023/03/12 09:27:48;;;;;;;2.50;1.50;;;460.80;1100.80;;;;;;5147839;27;20130;-65
2023/03/12 09:30:22;;;;;;;2.00;1.40;;;486.40;998.40;;;;;;5147809;27;20049;-66
2023/03/12 09:32:48;;;;;;;2.90;1.30;;;486.40;1075.20;;;;;;5146974;27;20051;-66
2023/03/12 09:35:14;;;;;;;2.55;1.40;;;460.80;1049.60;;;;;;5128660;27;20047;-66
2023/03/12 09:37:40;;;;;;;2.53;1.60;;;486.40;1049.60;;;;;;5146726;27;20389;-65
2023/03/12 09:40:07;;;;;;;3.72;1.80;;;486.40;998.40;;;;;;5146868;27;20057;-69
2023/03/12 09:42:41;;;;;;;4.30;2.13;;;486.40;998.40;;;;;;5147586;27;20373;-65
2023/03/12 09:45:12;;;;;;;15.98;2.10;;;460.80;1024.00;;;;;;5140811;27;20043;-67
2023/03/12 09:47:50;;;;;;;3.42;1.70;;;460.80;1024.00;;;;;;5134522;27;20505;-64
2023/03/12 09:50:26;;;;;;;4.63;2.13;;;486.40;998.40;;;;;;5126637;27;20047;-66
2023/03/12 09:53:00;;;;;;;5.70;2.25;;;486.40;998.40;;;;;;5125177;27;20043;-65
2023/03/12 09:55:31;;;;;;;4.00;1.85;;;486.40;998.40;;;;;;5126899;27;20042;-67
2023/03/12 09:57:58;;;;;;;4.88;2.22;;;486.40;1075.20;;;;;;5125543;27;20446;-66
2023/03/12 10:00:29;;;;;;;7.47;1.80;;;486.40;1075.20;;;;;;5124648;27;20047;-65
2023/03/12 10:02:58;;;;;;;4.57;1.75;;;486.40;998.40;;;;;;5125988;27;20063;-63
2023/03/12 10:05:31;;;;;;;7.82;2.17;;;486.40;1049.60;;;;;;5125113;27;20088;-64
2023/03/12 10:08:12;;;;;;;7.97;2.83;;;486.40;1100.80;;;;;;5125096;27;20090;-64
2023/03/12 10:11:10;;;;;;;12.90;4.05;;;486.40;998.40;;;;;;5126123;27;20043;-67
2023/03/12 10:13:36;;;;;;;22.20;3.92;;;486.40;998.40;;;;;;5126133;27;20519;-65
2023/03/12 10:16:15;;;;;;;12.68;3.90;;;486.40;1100.80;;;;;;5106685;27;20055;-66
2023/03/12 10:18:47;;;;;;;14.35;3.35;;;486.40;1100.80;;;;;;5142666;27;20091;-68
2023/03/12 10:21:23;;;;;;;10.85;3.80;;;486.40;1075.20;;;;;;5143694;27;20053;-68
2023/03/12 10:23:49;;;;;;;13.57;3.92;;;;;;;;;;5145029;27;20951;-77
2023/03/12 10:30:00;;;;;;;9.00;3.28;;;;;;;;;;4998716;27;20511;-72
2023/03/12 10:32:36;;;;;;;10.23;3.45;;;;;;;;;;4996880;28;20137;-71
2023/03/12 10:35:03;;;;;;;9.07;3.45;;;;;;;;;;4997002;28;20050;-70
2023/03/12 10:37:29;;;;;;;8.70;3.25;;;;;;;;;;4998036;28;20077;-69
2023/03/12 10:39:58;;;;;;;8.90;2.80;;;;;;;;;;4999661;28;20095;-69
2023/03/12 10:42:26;;;;;;;7.30;2.90;;;;;;;;;;4999295;28;20174;-69
2023/03/12 10:44:53;;;;;;;7.47;2.97;;;;;;;;;;4994020;28;20448;-69
2023/03/12 10:47:29;;;;;;;6.95;2.22;;;;;;;;;;4988846;28;20046;-69
2023/03/12 10:50:10;;;;;;;5.32;2.42;;;;;;;;;;4979783;28;20076;-68
2023/03/12 10:52:36;;;;;;;8.90;2.92;;;;;;;;;;4978044;28;20108;-69
2023/03/12 10:55:10;;;;;;;7.57;2.70;;;;;;;;;;4979184;28;20050;-69
2023/03/12 10:57:40;;;;;;;8.05;2.92;;;;;;;;;;4978973;28;20533;-68
2023/03/12 11:00:10;;;;;;;7.55;2.17;;;;;;;;;;4983269;28;20085;-69
2023/03/12 11:02:41;;;;;;;7.32;2.55;;;;;;;;;;4997896;28;20389;-68
2023/03/12 11:05:28;;;;;;;5.97;2.35;;;;;;;;;;4998816;28;20090;-68
2023/03/12 11:07:54;;;;;;;6.75;2.58;;;;;;;;;;4996109;28;20046;-69
2023/03/12 11:10:22;;;;;;;7.28;2.60;;;;;;;;;;4996678;28;20141;-69
2023/03/12 11:12:59;;;;;;;5.60;2.20;;;;;;;;;;4999086;28;20050;-69
2023/03/12 11:15:31;;;;;;;6.55;1.80;;;;;;;;;;4998574;28;20046;-69
2023/03/12 11:18:16;;;;;;;4.70;2.00;;;;;;;;;;4998884;28;20328;-69
2023/03/12 11:20:42;;;;;;;6.15;2.63;;;;;;;;;;4998385;28;20133;-70
2023/03/12 11:23:13;;;;;;;4.70;2.05;;;;;;;;;;4997710;28;20412;-69
2023/03/12 11:25:39;;;;;;;5.18;2.10;;;;;;;;;;4999246;28;20163;-69
2023/03/12 11:28:07;;;;;;;7.47;1.98;;;;;;;;;;4998330;28;20058;-67
2023/03/12 11:30:38;;;;;;;4.20;1.85;;;;;;;;;;4998525;28;20496;-68
2023/03/12 11:33:05;;;;;;;3.85;2.13;;;;;;;;;;4998479;28;20133;-68
2023/03/12 11:35:42;;;;;;;4.78;1.85;;;;;;;;;;4998889;28;20049;-69
2023/03/12 11:38:28;;;;;;;4.32;1.90;;;;;;;;;;4998149;28;20091;-68
2023/03/12 11:41:10;;;;;;;3.45;1.98;;;;;;;;;;4976744;28;20604;-72
2023/03/12 11:43:39;;;;;;;3.13;1.75;;;;;;;;;;4966811;28;20382;-71
2023/03/12 11:46:14;;;;;;;4.45;1.90;;;;;;;;;;4978369;28;20213;-71
2023/03/12 11:48:58;;;;;;;5.97;1.88;;;;;;;;;;4971134;28;20083;-71
2023/03/12 11:51:31;;;;;;;4.93;2.13;;;;;;;;;;4964309;28;20133;-72
2023/03/12 11:54:09;;;;;;;3.42;2.10;;;;;;;;;;4983443;28;20130;-73
2023/03/12 11:56:46;;;;;;;4.65;2.17;;;;;;;;;;4984060;28;20431;-73
2023/03/12 11:59:38;;;;;;;3.53;1.85;;;;;;;;;;4983665;28;20404;-73
2023/03/12 12:02:21;;;;;;;3.47;1.75;;;;;;;;;;4982183;28;20089;-72
2023/03/12 12:05:00;;;;;;;4.32;2.10;;;;;;;;;;4982441;28;20133;-71
2023/03/12 12:07:41;;;;;;;4.13;1.90;;;;;;;;;;4982005;28;20072;-72
2023/03/12 12:10:26;;;;;;;3.03;1.70;;;;;;;;;;4983731;28;20124;-71
2023/03/12 12:12:52;;;;;;;;;;;;;;;;;;4982239;28;20050;-70
2023/03/12 12:15:27;;;;;;;3.58;1.80;;;;;;;;;;4981181;28;19952;-72
2023/03/12 12:17:59;;;;;;;3.55;1.60;;;;;;;;;;4983876;28;20067;-73
2023/03/12 12:20:28;;;;;;;3.17;1.75;;;;;;;;;;4984425;28;20097;-72
2023/03/12 12:23:04;;;;;;;3.28;1.50;;;;;;;;;;4983702;28;20054;-72
2023/03/12 12:25:48;;;;;;;3.47;1.70;;;;;;;;;;4983218;28;20047;-70
2023/03/12 12:28:25;;;;;;;3.97;1.85;;;;;;;;;;4981987;28;20050;-70
2023/03/12 12:30:51;;;;;;;3.42;1.80;;;;;;;;;;4983978;28;20118;-70
2023/03/12 12:33:39;;;;;;;3.90;1.92;;;;;;;;;;4983456;28;20085;-70
2023/03/12 12:36:08;;;;;;;3.97;1.80;;;;;;;;;;4983348;28;20855;-69
2023/03/12 12:38:37;;;;;;;4.47;1.85;;;;;;;;;;4982096;28;20483;-70
2023/03/12 12:41:09;;;;;;;3.10;1.70;;;;;;;;;;4982636;28;20050;-70
2023/03/12 12:43:35;;;;;;;3.13;1.98;;;;;;;;;;4984045;28;20069;-70
2023/03/12 12:46:06;;;;;;;3.22;1.55;;;;;;;;;;4976434;28;20046;-70
2023/03/12 12:48:37;;;;;;;3.42;1.65;;;;;;;;;;4996758;28;20123;-71
2023/03/12 12:51:04;;;;;;;2.70;1.40;;;;;;;;;;5020396;28;20046;-70
2023/03/12 12:53:33;;;;;;;2.95;1.70;;;;;;;;;;5041600;28;20066;-71